createdAt,value
2022-09-27T00:01:51.824Z,99.00
2022-09-27T00:04:22.267Z,99.30
2022-09-27T00:06:52.774Z,99.40
2022-09-27T00:09:23.243Z,99.40
2022-09-27T00:11:53.739Z,99.40
2022-09-27T00:14:24.094Z,99.30
2022-09-27T00:16:54.487Z,99.20
2022-09-27T00:19:26.079Z,99.40
2022-09-27T00:21:56.654Z,99.20
2022-09-27T00:24:27.169Z,99.30
2022-09-27T00:26:57.918Z,99.30
2022-09-27T00:29:28.400Z,99.50
2022-09-27T00:31:59.061Z,99.70
2022-09-27T00:34:29.646Z,99.80
2022-09-27T00:37:00.193Z,99.70
2022-09-27T00:39:30.609Z,99.50
2022-09-27T00:42:01.092Z,99.50
2022-09-27T00:45:02.498Z,99.40
2022-09-27T00:47:42.115Z,99.30
2022-09-27T00:50:24.401Z,99.30
2022-09-27T00:53:18.262Z,99.20
2022-09-27T00:56:01.811Z,99.10
2022-09-27T00:58:37.947Z,99.10
2022-09-27T01:01:15.702Z,99.10
2022-09-27T01:04:03.515Z,99.10
2022-09-27T01:06:34.189Z,99.00
2022-09-27T01:09:05.135Z,98.80
2022-09-27T01:11:53.916Z,98.90
2022-09-27T01:15:03.100Z,98.80
2022-09-27T01:17:45.681Z,98.70
2022-09-27T01:20:54.816Z,98.40
2022-09-27T01:24:04.563Z,98.40
2022-09-27T01:27:09.342Z,98.30
2022-09-27T01:30:01.757Z,98.50
2022-09-27T01:32:41.224Z,98.20
2022-09-27T01:35:32.222Z,98.30
2022-09-27T01:38:24.142Z,98.20
2022-09-27T01:41:07.308Z,98.40
2022-09-27T01:44:01.989Z,98.20
2022-09-27T01:46:41.846Z,98.00
2022-09-27T01:49:20.251Z,98.00
2022-09-27T01:51:59.947Z,97.90
2022-09-27T01:54:41.558Z,98.00
2022-09-27T01:57:16.033Z,98.00
2022-09-27T01:59:57.255Z,97.80
2022-09-27T02:02:31.663Z,97.70
2022-09-27T02:05:05.429Z,97.60
2022-09-27T02:07:44.947Z,97.50
2022-09-27T02:10:21.626Z,97.60
2022-09-27T02:13:08.323Z,97.70
2022-09-27T02:15:52.637Z,97.50
2022-09-27T02:18:33.056Z,97.30
2022-09-27T02:21:08.001Z,97.40
2022-09-27T02:23:51.293Z,97.50
2022-09-27T02:26:30.158Z,97.30
2022-09-27T02:29:13.679Z,97.10
2022-09-27T02:31:44.199Z,97.20
2022-09-27T02:34:25.909Z,97.30
2022-09-27T02:36:57.216Z,97.00
2022-09-27T02:39:27.679Z,96.70
2022-09-27T02:42:00.450Z,97.00
2022-09-27T02:44:31.733Z,96.70
2022-09-27T02:47:22.494Z,96.80
2022-09-27T02:50:20.469Z,96.80
2022-09-27T02:53:10.998Z,96.10
2022-09-27T02:55:59.194Z,95.50
2022-09-27T02:59:06.806Z,95.80
2022-09-27T03:02:10.971Z,96.00
2022-09-27T03:05:05.910Z,96.00
2022-09-27T03:07:37.136Z,95.70
2022-09-27T03:10:08.556Z,95.20
2022-09-27T03:12:38.838Z,95.00
2022-09-27T03:15:09.550Z,95.50
2022-09-27T03:17:39.963Z,94.60
2022-09-27T03:20:11.237Z,94.30
2022-09-27T03:22:42.747Z,94.20
2022-09-27T03:25:14.142Z,93.50
2022-09-27T03:27:44.661Z,94.20
2022-09-27T03:30:16.987Z,94.80
2022-09-27T03:32:48.607Z,94.20
2022-09-27T03:35:21.172Z,93.90
2022-09-27T03:37:51.651Z,92.20
2022-09-27T03:40:21.949Z,92.60
2022-09-27T03:42:52.704Z,92.60
2022-09-27T03:45:22.830Z,92.70
2022-09-27T03:47:52.993Z,93.00
2022-09-27T03:50:23.378Z,92.30
2022-09-27T03:52:53.534Z,92.00
2022-09-27T03:55:23.651Z,92.30
2022-09-27T03:57:53.910Z,91.70
2022-09-27T04:00:24.774Z,91.70
2022-09-27T04:02:54.875Z,91.40
2022-09-27T04:05:26.150Z,92.70
2022-09-27T04:07:56.746Z,92.60
2022-09-27T04:10:26.934Z,91.70
2022-09-27T04:15:52.615Z,91.60
2022-09-27T04:18:22.699Z,91.90
2022-09-27T04:20:52.717Z,92.10
2022-09-27T04:23:26.470Z,91.50
2022-09-27T04:25:59.220Z,91.50
2022-09-27T04:28:31.952Z,91.90
2022-09-27T04:31:02.138Z,91.00
2022-09-27T04:33:32.216Z,91.80
2022-09-27T04:36:19.455Z,92.20
2022-09-27T04:38:50.150Z,91.00
2022-09-27T04:41:20.335Z,90.90
2022-09-27T04:43:51.559Z,91.10
2022-09-27T04:46:24.601Z,90.60
2022-09-27T04:48:54.749Z,91.60
2022-09-27T04:51:24.852Z,91.50
2022-09-27T04:53:56.241Z,92.10
2022-09-27T04:56:26.365Z,92.00
2022-09-27T04:58:56.802Z,91.80
2022-09-27T05:01:27.144Z,91.60
2022-09-27T05:03:57.151Z,92.00
2022-09-27T05:06:27.540Z,92.10
2022-09-27T05:08:58.310Z,91.70
2022-09-27T05:11:29.220Z,91.90
2022-09-27T05:13:59.096Z,91.60
2022-09-27T05:16:30.881Z,91.20
2022-09-27T05:19:04.437Z,91.70
2022-09-27T05:21:34.426Z,91.20
2022-09-27T05:24:04.635Z,90.90
2022-09-27T05:26:39.545Z,90.90
2022-09-27T05:29:10.360Z,90.90
2022-09-27T05:33:12.433Z,91.50
2022-09-27T05:35:45.673Z,92.00
2022-09-27T05:38:15.807Z,91.70
2022-09-27T05:40:47.082Z,91.50
2022-09-27T05:43:17.691Z,91.70
2022-09-27T05:45:48.106Z,90.90
2022-09-27T05:48:18.191Z,90.40
2022-09-27T05:50:48.545Z,90.80
2022-09-27T05:53:18.486Z,91.50
2022-09-27T05:55:48.625Z,90.50
2022-09-27T05:58:18.913Z,90.00
2022-09-27T06:00:49.091Z,90.80
2022-09-27T06:03:22.879Z,90.30
2022-09-27T06:05:52.725Z,90.30
2022-09-27T06:08:22.870Z,89.80
2022-09-27T06:10:53.122Z,90.20
2022-09-27T06:13:23.049Z,90.40
2022-09-27T06:15:55.153Z,89.90
2022-09-27T06:18:25.282Z,90.00
2022-09-27T06:20:55.285Z,89.30
2022-09-27T06:23:26.553Z,89.10
2022-09-27T06:25:58.370Z,87.40
2022-09-27T06:28:31.349Z,86.90
2022-09-27T06:31:03.174Z,86.60
2022-09-27T06:33:33.292Z,88.00
2022-09-27T06:36:08.285Z,88.10
2022-09-27T06:38:38.878Z,86.90
2022-09-27T06:41:10.462Z,87.00
2022-09-27T06:43:41.094Z,88.70
2022-09-27T06:46:11.405Z,89.00
2022-09-27T06:48:41.362Z,89.80
2022-09-27T06:51:11.191Z,88.60
2022-09-27T06:53:41.092Z,89.10
2022-09-27T06:56:12.336Z,90.30
2022-09-27T06:58:57.687Z,90.80
2022-09-27T07:01:31.992Z,90.50
2022-09-27T07:04:02.127Z,90.40
2022-09-27T07:06:32.975Z,90.70
2022-09-27T07:09:02.750Z,90.10
2022-09-27T07:11:32.757Z,89.70
2022-09-27T07:14:03.750Z,89.30
2022-09-27T07:16:36.472Z,90.50
2022-09-27T07:19:09.551Z,90.20
2022-09-27T07:21:39.524Z,89.70
2022-09-27T07:24:09.527Z,87.70
2022-09-27T07:26:39.486Z,89.00
2022-09-27T07:29:09.380Z,88.80
2022-09-27T07:31:40.326Z,87.20
2022-09-27T07:34:10.718Z,88.30
2022-09-27T07:36:41.021Z,89.20
2022-09-27T07:39:11.681Z,87.70
2022-09-27T07:41:42.049Z,87.30
2022-09-27T07:44:12.320Z,88.20
2022-09-27T07:46:42.445Z,88.20
2022-09-27T07:49:12.500Z,87.50
2022-09-27T07:51:42.410Z,88.50
2022-09-27T07:54:12.786Z,88.10
2022-09-27T07:56:42.968Z,88.50
2022-09-27T07:59:12.918Z,88.50
2022-09-27T08:01:43.126Z,88.00
2022-09-27T08:04:13.181Z,87.30
2022-09-27T08:06:43.891Z,87.00
2022-09-27T08:09:15.220Z,87.40
2022-09-27T08:11:46.456Z,87.00
2022-09-27T08:14:16.679Z,89.30
2022-09-27T08:16:46.675Z,89.00
2022-09-27T08:19:18.234Z,87.90
2022-09-27T08:21:50.306Z,86.10
2022-09-27T08:24:20.807Z,87.50
2022-09-27T08:26:51.414Z,88.60
2022-09-27T08:29:21.771Z,87.80
2022-09-27T08:31:56.065Z,88.00
2022-09-27T08:34:26.918Z,88.20
2022-09-27T08:36:58.048Z,88.90
2022-09-27T08:39:28.534Z,89.00
2022-09-27T08:42:15.409Z,89.30
2022-09-27T08:45:15.316Z,88.40
2022-09-27T08:47:52.256Z,89.00
2022-09-27T08:50:39.953Z,88.10
2022-09-27T08:53:35.908Z,87.50
2022-09-27T08:56:10.166Z,88.80
2022-09-27T08:58:46.619Z,89.70
2022-09-27T09:01:19.893Z,89.30
2022-09-27T09:03:57.995Z,89.30
2022-09-27T09:06:38.620Z,89.90
2022-09-27T09:09:37.375Z,90.20
2022-09-27T09:12:36.391Z,90.40
2022-09-27T09:15:56.363Z,90.70
2022-09-27T09:18:57.458Z,91.10
2022-09-27T09:21:47.671Z,90.80
2022-09-27T09:24:42.739Z,90.80
2022-09-27T09:27:30.426Z,91.40
2022-09-27T09:30:25.787Z,91.90
2022-09-27T09:33:34.729Z,91.80
2022-09-27T09:36:23.038Z,91.90
2022-09-27T09:39:02.447Z,92.20
2022-09-27T09:41:40.673Z,92.20
2022-09-27T09:44:32.115Z,92.30
2022-09-27T09:47:05.589Z,92.20
2022-09-27T09:49:47.523Z,92.30
2022-09-27T09:52:21.986Z,92.50
2022-09-27T09:55:05.166Z,92.10
2022-09-27T09:57:43.293Z,91.90
2022-09-27T10:00:20.147Z,91.70
2022-09-27T10:02:52.591Z,91.60
2022-09-27T10:05:28.492Z,91.70
2022-09-27T10:08:04.884Z,91.90
2022-09-27T10:10:36.054Z,92.50
2022-09-27T10:13:07.063Z,92.60
2022-09-27T10:15:37.761Z,91.60
2022-09-27T10:18:14.699Z,92.10
2022-09-27T10:20:52.642Z,92.10
2022-09-27T10:23:27.308Z,92.20
2022-09-27T10:26:00.405Z,92.30
2022-09-27T10:28:45.538Z,91.90
2022-09-27T10:31:20.470Z,91.80
2022-09-27T10:34:07.225Z,91.80
2022-09-27T10:36:40.802Z,92.30
2022-09-27T10:39:25.822Z,92.70
2022-09-27T10:41:56.483Z,92.80
2022-09-27T10:44:34.517Z,92.60
2022-09-27T10:47:17.451Z,92.60
2022-09-27T10:49:47.921Z,92.40
2022-09-27T10:52:26.875Z,92.80
2022-09-27T10:55:04.160Z,92.90
2022-09-27T10:57:35.432Z,93.10
2022-09-27T11:00:22.869Z,93.30
2022-09-27T11:03:00.723Z,93.50
2022-09-27T11:05:40.219Z,93.40
2022-09-27T11:08:29.591Z,93.10
2022-09-27T11:11:22.086Z,93.50
2022-09-27T11:14:24.883Z,93.40
2022-09-27T11:17:22.813Z,93.60
2022-09-27T11:20:10.980Z,93.80
2022-09-27T11:23:05.257Z,93.50
2022-09-27T11:26:06.090Z,93.50
2022-09-27T11:29:05.519Z,93.20
2022-09-27T11:31:55.659Z,92.90
2022-09-27T11:34:56.196Z,93.00
2022-09-27T11:37:46.152Z,92.90
2022-09-27T11:40:36.211Z,93.20
2022-09-27T11:43:36.831Z,93.10
2022-09-27T11:46:41.648Z,93.60
2022-09-27T11:49:55.396Z,94.00
2022-09-27T11:52:48.063Z,94.10
2022-09-27T11:55:42.754Z,94.30
2022-09-27T11:58:40.002Z,94.50
2022-09-27T12:01:43.571Z,94.70
2022-09-27T12:04:42.196Z,95.00
2022-09-27T12:07:41.861Z,95.20
2022-09-27T12:10:18.884Z,95.30
2022-09-27T12:12:57.196Z,95.50
2022-09-27T12:15:33.104Z,95.40
2022-09-27T12:18:31.170Z,95.80
2022-09-27T12:21:05.649Z,95.80
2022-09-27T12:23:48.338Z,95.90
2022-09-27T12:26:34.282Z,95.90
2022-09-27T12:29:19.120Z,95.80
2022-09-27T12:32:07.692Z,96.00
2022-09-27T12:35:04.382Z,95.80
2022-09-27T12:37:41.679Z,95.60
2022-09-27T12:40:35.792Z,95.50
2022-09-27T12:43:19.106Z,95.90
2022-09-27T12:46:09.784Z,96.10
2022-09-27T12:49:11.307Z,95.90
2022-09-27T12:52:05.860Z,95.80
2022-09-27T12:55:07.557Z,95.80
2022-09-27T12:58:10.328Z,95.90
2022-09-27T13:00:59.273Z,96.10
2022-09-27T13:04:06.452Z,96.10
2022-09-27T13:07:11.607Z,96.20
2022-09-27T13:10:11.935Z,95.90
2022-09-27T13:12:49.912Z,95.90
2022-09-27T13:15:31.860Z,95.70
2022-09-27T13:18:05.701Z,95.40
2022-09-27T13:20:46.930Z,95.60
2022-09-27T13:23:54.048Z,95.70
2022-09-27T13:26:45.773Z,95.50
2022-09-27T13:29:29.711Z,95.80
2022-09-27T13:32:17.353Z,96.00
2022-09-27T13:34:59.012Z,96.20
2022-09-27T13:37:53.793Z,96.20
2022-09-27T13:40:30.050Z,96.20
2022-09-27T13:43:30.291Z,96.40
2022-09-27T13:46:04.654Z,96.40
2022-09-27T13:48:50.114Z,96.20
2022-09-27T13:51:43.651Z,96.50
2022-09-27T13:54:42.582Z,96.30
2022-09-27T13:57:44.496Z,96.60
2022-09-27T14:00:26.955Z,96.50
2022-09-27T14:03:08.970Z,96.50
2022-09-27T14:05:44.405Z,96.60
2022-09-27T14:08:29.728Z,96.80
2022-09-27T14:11:01.499Z,96.90
2022-09-27T14:13:34.975Z,96.90
2022-09-27T14:16:08.401Z,96.90
2022-09-27T14:18:46.680Z,96.70
2022-09-27T14:21:30.996Z,96.90
2022-09-27T14:24:33.326Z,97.00
2022-09-27T14:27:32.361Z,97.00
2022-09-27T14:30:10.795Z,97.10
2022-09-27T14:32:57.532Z,97.00
2022-09-27T14:35:45.450Z,97.00
2022-09-27T14:38:37.268Z,97.20
2022-09-27T14:41:11.039Z,97.30
2022-09-27T14:43:47.197Z,97.40
2022-09-27T14:46:31.463Z,97.50
2022-09-27T14:49:17.783Z,97.50
2022-09-27T14:51:55.910Z,97.50
2022-09-27T14:54:34.877Z,97.60
2022-09-27T14:57:05.373Z,97.60
2022-09-27T14:59:40.194Z,97.50
2022-09-27T15:02:22.281Z,97.50
2022-09-27T15:04:54.367Z,97.70
2022-09-27T15:07:25.610Z,97.50
2022-09-27T15:09:56.751Z,97.80
2022-09-27T15:12:29.170Z,97.40
2022-09-27T15:15:01.409Z,97.40
2022-09-27T15:17:31.765Z,97.50
2022-09-27T15:20:06.987Z,97.50
2022-09-27T15:22:44.473Z,97.50
2022-09-27T15:25:26.857Z,97.50
2022-09-27T15:27:58.557Z,97.40
2022-09-27T15:30:39.591Z,97.70
2022-09-27T15:33:22.869Z,97.80
2022-09-27T15:36:00.041Z,97.90
2022-09-27T15:38:49.630Z,97.90
2022-09-27T15:41:22.385Z,98.00
2022-09-27T15:43:55.187Z,98.00
2022-09-27T15:46:39.152Z,97.80
2022-09-27T15:49:24.413Z,97.80
2022-09-27T15:51:59.623Z,97.80
2022-09-27T15:54:33.912Z,97.70
2022-09-27T15:57:07.596Z,97.70
2022-09-27T15:59:39.409Z,97.80
2022-09-27T16:02:18.298Z,97.80
2022-09-27T16:04:48.715Z,97.90
2022-09-27T16:07:21.263Z,97.80
2022-09-27T16:09:53.976Z,97.80
2022-09-27T16:12:25.547Z,97.90
2022-09-27T16:14:56.654Z,97.90
2022-09-27T16:17:27.087Z,97.70
2022-09-27T16:19:57.550Z,97.80
2022-09-27T16:22:28.029Z,97.80
2022-09-27T16:24:58.506Z,97.90
2022-09-27T16:27:30.044Z,98.00
2022-09-27T16:30:00.806Z,97.80
2022-09-27T16:32:32.220Z,97.80
2022-09-27T16:35:02.786Z,98.10
2022-09-27T16:37:33.157Z,98.10
2022-09-27T16:40:03.816Z,98.00
2022-09-27T16:42:34.598Z,97.90
2022-09-27T16:45:10.038Z,97.90
2022-09-27T16:47:42.740Z,97.80
2022-09-27T16:50:33.540Z,97.70
2022-09-27T16:53:03.994Z,97.60
2022-09-27T16:55:34.572Z,97.70
2022-09-27T16:58:07.447Z,97.80
2022-09-27T17:00:38.217Z,97.90
2022-09-27T17:03:10.384Z,97.90
2022-09-27T17:05:41.800Z,97.90
2022-09-27T17:08:12.171Z,97.90
2022-09-27T17:10:47.880Z,98.00
2022-09-27T17:13:18.343Z,98.20
2022-09-27T17:15:49.024Z,98.30
2022-09-27T17:18:19.814Z,98.30
2022-09-27T17:20:51.028Z,98.30
2022-09-27T17:23:21.809Z,98.30
2022-09-27T17:25:52.770Z,98.30
2022-09-27T17:28:23.212Z,98.30
2022-09-27T17:30:55.574Z,98.30
2022-09-27T17:33:26.252Z,98.10
2022-09-27T17:36:06.915Z,98.10
2022-09-27T17:38:38.373Z,98.20
2022-09-27T17:41:14.710Z,98.30
2022-09-27T17:43:54.397Z,98.30
2022-09-27T17:46:29.679Z,98.40
2022-09-27T17:49:17.040Z,98.30
2022-09-27T17:51:53.211Z,98.30
2022-09-27T17:54:26.695Z,98.30
2022-09-27T17:56:58.526Z,98.30
2022-09-27T17:59:29.052Z,98.20
2022-09-27T18:01:59.668Z,98.40
2022-09-27T18:04:30.588Z,98.50
2022-09-27T18:07:01.023Z,98.40
2022-09-27T18:09:31.672Z,98.40
2022-09-27T18:12:02.100Z,98.50
2022-09-27T18:14:32.562Z,98.40
2022-09-27T18:17:03.055Z,98.40
2022-09-27T18:19:33.520Z,98.40
2022-09-27T18:22:03.996Z,98.30
2022-09-27T18:24:34.477Z,98.40
2022-09-27T18:27:06.243Z,98.50
2022-09-27T18:29:36.753Z,98.40
2022-09-27T18:32:07.242Z,98.20
2022-09-27T18:34:38.103Z,98.30
2022-09-27T18:37:08.564Z,98.50
2022-09-27T18:39:39.206Z,98.40
2022-09-27T18:42:11.006Z,98.30
2022-09-27T18:44:41.549Z,98.10
2022-09-27T18:47:18.668Z,98.20
2022-09-27T18:49:49.067Z,98.40
2022-09-27T18:52:19.558Z,98.40
2022-09-27T18:54:50.464Z,98.40
2022-09-27T18:57:21.308Z,98.40
2022-09-27T18:59:51.837Z,98.50
2022-09-27T19:02:22.450Z,98.70
2022-09-27T19:04:52.921Z,98.70
2022-09-27T19:07:23.325Z,98.80
2022-09-27T19:09:54.873Z,98.70
2022-09-27T19:12:25.263Z,98.70
2022-09-27T19:14:55.839Z,98.60
2022-09-27T19:17:26.251Z,98.60
2022-09-27T19:19:56.743Z,98.50
2022-09-27T19:22:27.171Z,98.40
2022-09-27T19:24:57.701Z,98.40
2022-09-27T19:27:28.178Z,98.30
2022-09-27T19:30:01.311Z,98.20
2022-09-27T19:32:31.717Z,98.40
2022-09-27T19:35:02.544Z,98.60
2022-09-27T19:37:33.267Z,98.40
2022-09-27T19:40:04.008Z,98.40
2022-09-27T19:42:34.359Z,98.40
2022-09-27T19:45:08.064Z,98.40
2022-09-27T19:47:42.067Z,98.30
2022-09-27T19:50:12.822Z,98.20
2022-09-27T19:52:43.588Z,98.10
2022-09-27T19:55:14.016Z,98.10
2022-09-27T19:57:44.621Z,98.10
2022-09-27T20:00:15.357Z,98.30
2022-09-27T20:02:45.827Z,98.40
2022-09-27T20:05:16.309Z,98.60
2022-09-27T20:07:48.422Z,98.60
2022-09-27T20:10:19.577Z,98.70
2022-09-27T20:12:53.052Z,98.70
2022-09-27T20:15:23.978Z,98.80
2022-09-27T20:17:55.052Z,99.00
2022-09-27T20:20:25.967Z,98.90
2022-09-27T20:22:56.413Z,98.80
2022-09-27T20:25:28.464Z,98.90
2022-09-27T20:27:58.923Z,99.10
2022-09-27T20:30:29.324Z,99.10
2022-09-27T20:33:16.447Z,99.20
2022-09-27T20:35:56.090Z,99.20
2022-09-27T20:38:26.881Z,99.20
2022-09-27T20:40:58.275Z,99.30
2022-09-27T20:43:29.321Z,99.30
2022-09-27T20:46:04.374Z,99.40
2022-09-27T20:48:35.078Z,99.20
2022-09-27T20:51:05.884Z,99.20
2022-09-27T20:53:37.085Z,99.10
2022-09-27T20:56:07.566Z,99.20
2022-09-27T20:58:37.913Z,99.20
2022-09-27T21:01:09.660Z,99.30
2022-09-27T21:03:40.250Z,99.30
2022-09-27T21:06:11.240Z,99.20
2022-09-27T21:08:42.610Z,99.20
2022-09-27T21:11:16.705Z,99.40
2022-09-27T21:13:48.670Z,99.40
2022-09-27T21:16:22.106Z,99.50
2022-09-27T21:18:54.533Z,99.50
2022-09-27T21:21:28.292Z,99.60
2022-09-27T21:24:02.113Z,99.50
2022-09-27T21:26:34.928Z,99.50
2022-09-27T21:29:11.710Z,99.30
2022-09-27T21:31:42.360Z,99.10
2022-09-27T21:34:12.888Z,98.90
2022-09-27T21:36:43.268Z,99.10
2022-09-27T21:39:14.098Z,99.00
2022-09-27T21:41:45.185Z,98.90
2022-09-27T21:44:15.583Z,98.80
2022-09-27T21:46:46.272Z,98.80
2022-09-27T21:49:16.805Z,98.90
2022-09-27T21:51:47.436Z,99.00
2022-09-27T21:54:18.805Z,99.10
2022-09-27T21:56:49.224Z,99.20
2022-09-27T21:59:20.151Z,99.20
2022-09-27T22:01:50.570Z,99.10
2022-09-27T22:04:21.033Z,99.30
2022-09-27T22:06:51.762Z,99.30
2022-09-27T22:09:22.535Z,99.20
2022-09-27T22:11:53.075Z,99.30
2022-09-27T22:14:23.549Z,99.20
2022-09-27T22:16:53.944Z,99.20
2022-09-27T22:19:24.348Z,99.30
2022-09-27T22:21:54.650Z,99.20
2022-09-27T22:24:25.693Z,99.20
2022-09-27T22:26:56.219Z,99.00
2022-09-27T22:29:27.103Z,98.90
2022-09-27T22:31:57.559Z,98.80
2022-09-27T22:34:35.040Z,98.70
2022-09-27T22:37:05.406Z,98.80
2022-09-27T22:39:36.076Z,98.80
2022-09-27T22:42:06.912Z,99.00
2022-09-27T22:44:37.652Z,98.80
2022-09-27T22:47:08.287Z,98.70
2022-09-27T22:49:38.924Z,98.70
2022-09-27T22:52:09.278Z,98.70
2022-09-27T22:54:39.674Z,98.90
2022-09-27T22:57:10.553Z,99.00
2022-09-27T22:59:40.979Z,99.10
2022-09-27T23:02:11.364Z,99.30
2022-09-27T23:04:41.861Z,99.50
2022-09-27T23:07:13.052Z,99.40
2022-09-27T23:09:43.484Z,99.50
2022-09-27T23:12:13.960Z,99.70
2022-09-27T23:14:44.396Z,99.90
2022-09-27T23:17:15.667Z,99.90
2022-09-27T23:19:46.109Z,99.90
2022-09-27T23:22:16.549Z,99.90
2022-09-27T23:24:46.986Z,99.90
2022-09-27T23:27:26.809Z,99.80
2022-09-27T23:29:57.204Z,99.70
2022-09-27T23:32:31.591Z,99.90
2022-09-27T23:35:02.226Z,99.50
2022-09-27T23:37:32.568Z,99.30
2022-09-27T23:40:02.949Z,99.20
2022-09-27T23:42:33.315Z,99.20
2022-09-27T23:45:03.802Z,99.20
2022-09-27T23:47:35.148Z,99.20
2022-09-27T23:50:05.659Z,99.10
2022-09-27T23:52:35.954Z,99.00
2022-09-27T23:55:06.557Z,99.00
2022-09-27T23:57:37.054Z,99.10
